createdAt,value
2023-01-17T00:04:01.484Z,69.20
2023-01-17T00:09:22.982Z,69.20
2023-01-17T00:14:28.209Z,69.30
2023-01-17T00:19:49.133Z,69.40
2023-01-17T00:25:10.219Z,69.50
2023-01-17T00:30:14.435Z,69.60
2023-01-17T00:35:17.579Z,69.70
2023-01-17T00:40:19.905Z,69.90
2023-01-17T00:45:42.548Z,70.00
2023-01-17T00:51:03.492Z,70.00
2023-01-17T00:56:25.362Z,70.00
2023-01-17T01:01:48.006Z,70.20
2023-01-17T01:07:08.639Z,70.20
2023-01-17T01:12:29.658Z,70.20
2023-01-17T01:17:52.153Z,70.30
2023-01-17T01:23:13.238Z,70.60
2023-01-17T01:28:34.391Z,70.80
2023-01-17T01:33:39.449Z,71.00
2023-01-17T01:38:43.455Z,71.10
2023-01-17T01:43:49.628Z,71.00
2023-01-17T01:48:57.629Z,71.00
2023-01-17T01:54:08.039Z,70.70
2023-01-17T01:59:16.824Z,70.10
2023-01-17T02:04:23.577Z,70.30
2023-01-17T02:09:27.899Z,70.60
2023-01-17T02:14:31.432Z,70.60
2023-01-17T02:20:06.150Z,70.50
2023-01-17T02:25:36.855Z,70.30
2023-01-17T02:30:47.106Z,70.10
2023-01-17T02:35:59.531Z,70.10
2023-01-17T02:41:08.175Z,70.10
2023-01-17T02:46:12.987Z,69.90
2023-01-17T02:51:46.151Z,69.70
2023-01-17T02:57:00.626Z,69.70
2023-01-17T03:02:13.314Z,69.80
2023-01-17T03:07:20.923Z,69.80
2023-01-17T03:12:27.400Z,69.70
2023-01-17T03:17:33.935Z,69.50
2023-01-17T03:22:37.327Z,69.20
2023-01-17T03:27:40.765Z,69.00
2023-01-17T03:32:45.839Z,68.80
2023-01-17T03:37:49.212Z,68.80
2023-01-17T03:42:53.025Z,68.70
2023-01-17T03:47:57.911Z,68.60
2023-01-17T03:53:01.405Z,68.70
2023-01-17T03:58:04.893Z,68.90
2023-01-17T04:03:09.671Z,68.90
2023-01-17T04:08:13.134Z,68.90
2023-01-17T04:13:17.591Z,68.90
2023-01-17T04:18:24.589Z,68.80
2023-01-17T04:23:28.115Z,68.80
2023-01-17T04:28:31.897Z,68.70
2023-01-17T04:33:36.953Z,68.60
2023-01-17T04:38:40.394Z,68.60
2023-01-17T04:43:43.787Z,68.70
2023-01-17T04:48:48.795Z,68.70
2023-01-17T04:53:52.263Z,68.50
2023-01-17T04:58:57.962Z,68.60
2023-01-17T05:04:02.926Z,68.40
2023-01-17T05:09:06.798Z,68.40
2023-01-17T05:14:11.235Z,68.40
2023-01-17T05:19:16.611Z,68.30
2023-01-17T05:24:20.521Z,68.30
2023-01-17T05:29:24.172Z,68.40
2023-01-17T05:34:28.985Z,68.40
2023-01-17T05:39:32.409Z,68.40
2023-01-17T05:44:36.183Z,68.30
2023-01-17T05:49:40.933Z,68.30
2023-01-17T05:54:44.343Z,68.10
2023-01-17T05:59:47.783Z,68.10
2023-01-17T06:04:52.578Z,67.80
2023-01-17T06:09:56.365Z,67.90
2023-01-17T06:14:59.770Z,68.00
2023-01-17T06:20:05.630Z,67.80
2023-01-17T06:25:10.259Z,67.30
2023-01-17T06:30:14.471Z,67.20
2023-01-17T06:35:19.756Z,67.00
2023-01-17T06:40:25.068Z,67.00
2023-01-17T06:45:30.278Z,66.90
2023-01-17T06:50:35.238Z,67.10
2023-01-17T06:55:40.516Z,66.80
2023-01-17T07:00:44.714Z,66.60
2023-01-17T07:05:49.898Z,66.30
2023-01-17T07:10:58.678Z,65.80
2023-01-17T07:16:02.568Z,65.70
2023-01-17T07:21:14.310Z,65.60
2023-01-17T07:26:18.111Z,65.50
2023-01-17T07:31:21.556Z,65.50
2023-01-17T07:36:26.438Z,65.30
2023-01-17T07:41:32.336Z,65.30
2023-01-17T07:46:36.213Z,65.40
2023-01-17T07:51:41.735Z,65.20
2023-01-17T07:56:47.185Z,65.30
2023-01-17T08:01:50.964Z,65.40
2023-01-17T08:06:55.950Z,65.40
2023-01-17T08:11:59.435Z,65.40
2023-01-17T08:17:06.594Z,65.40
2023-01-17T08:22:12.419Z,65.40
2023-01-17T08:27:15.919Z,65.40
2023-01-17T08:32:21.363Z,65.30
2023-01-17T08:37:26.422Z,65.20
2023-01-17T08:42:30.710Z,65.20
2023-01-17T08:47:35.338Z,65.00
2023-01-17T08:52:40.303Z,64.90
2023-01-17T08:57:43.937Z,64.60
2023-01-17T09:02:47.481Z,64.60
2023-01-17T09:07:52.400Z,64.50
2023-01-17T09:12:55.851Z,64.40
2023-01-17T09:18:00.964Z,64.20
2023-01-17T09:23:05.935Z,64.00
2023-01-17T09:28:09.481Z,63.00
2023-01-17T09:33:13.052Z,63.50
2023-01-17T09:38:18.118Z,63.90
2023-01-17T09:43:38.622Z,64.00
2023-01-17T09:48:48.710Z,62.50
2023-01-17T09:53:55.141Z,61.30
2023-01-17T09:59:18.920Z,60.90
2023-01-17T10:04:51.400Z,60.50
2023-01-17T10:10:16.499Z,60.20
2023-01-17T10:15:47.454Z,60.10
2023-01-17T10:20:56.013Z,60.00
2023-01-17T10:26:02.926Z,59.50
2023-01-17T10:31:13.118Z,58.20
2023-01-17T10:36:24.665Z,58.50
2023-01-17T10:41:31.896Z,58.70
2023-01-17T10:46:41.946Z,58.20
2023-01-17T10:52:00.879Z,57.60
2023-01-17T10:57:06.148Z,57.50
2023-01-17T11:02:19.926Z,58.00
2023-01-17T11:07:25.458Z,58.50
2023-01-17T11:12:33.579Z,58.40
2023-01-17T11:17:39.413Z,58.50
2023-01-17T11:22:47.080Z,58.80
2023-01-17T11:28:02.536Z,59.10
2023-01-17T11:33:08.988Z,59.50
2023-01-17T11:38:17.641Z,59.40
2023-01-17T11:43:27.018Z,58.90
2023-01-17T11:48:36.962Z,58.30
2023-01-17T11:53:42.009Z,57.40
2023-01-17T11:58:47.425Z,57.30
2023-01-17T12:04:16.570Z,57.00
2023-01-17T12:09:28.455Z,56.90
2023-01-17T12:14:43.545Z,56.20
2023-01-17T12:20:01.056Z,55.50
2023-01-17T12:25:24.668Z,55.10
2023-01-17T12:31:04.360Z,55.00
2023-01-17T12:36:17.643Z,54.80
2023-01-17T12:41:26.588Z,54.20
2023-01-17T12:46:38.551Z,54.30
2023-01-17T12:51:44.056Z,52.80
2023-01-17T12:56:52.825Z,52.70
2023-01-17T13:02:00.722Z,53.20
2023-01-17T13:07:12.621Z,52.60
2023-01-17T13:12:19.110Z,52.80
2023-01-17T13:17:35.737Z,51.70
2023-01-17T13:22:40.495Z,51.40
2023-01-17T13:28:03.051Z,51.20
2023-01-17T13:33:27.807Z,51.10
2023-01-17T13:38:41.854Z,50.80
2023-01-17T13:44:07.067Z,49.40
2023-01-17T13:49:35.554Z,49.40
2023-01-17T13:54:47.366Z,48.70
2023-01-17T13:59:51.078Z,47.60
2023-01-17T14:05:15.206Z,49.00
2023-01-17T14:10:32.024Z,49.00
2023-01-17T14:15:48.159Z,48.70
2023-01-17T14:21:07.477Z,49.20
2023-01-17T14:26:49.976Z,48.50
2023-01-17T14:32:01.810Z,50.50
2023-01-17T14:37:14.454Z,50.30
2023-01-17T14:42:21.367Z,50.00
2023-01-17T14:47:25.675Z,49.90
2023-01-17T14:52:30.460Z,50.30
2023-01-17T14:57:33.962Z,49.80
2023-01-17T15:02:42.891Z,49.60
2023-01-17T15:07:50.625Z,49.70
2023-01-17T15:12:55.118Z,49.70
2023-01-17T15:18:23.173Z,49.10
2023-01-17T15:23:33.423Z,49.90
2023-01-17T15:28:37.095Z,50.00
2023-01-17T15:33:43.265Z,49.90
2023-01-17T15:38:56.198Z,50.20
2023-01-17T15:43:59.917Z,50.20
2023-01-17T15:49:08.909Z,50.10
2023-01-17T15:54:41.522Z,49.80
2023-01-17T15:59:47.438Z,50.80
2023-01-17T16:04:52.188Z,50.00
2023-01-17T16:10:03.729Z,50.00
2023-01-17T16:15:12.888Z,50.00
2023-01-17T16:20:21.132Z,50.10
2023-01-17T16:25:32.311Z,50.30
2023-01-17T16:30:35.758Z,50.70
2023-01-17T16:35:40.427Z,50.90
2023-01-17T16:40:47.152Z,50.90
2023-01-17T16:45:54.303Z,50.60
2023-01-17T16:50:59.432Z,50.60
2023-01-17T16:56:12.233Z,50.30
2023-01-17T17:01:21.100Z,50.50
2023-01-17T17:06:25.799Z,50.60
2023-01-17T17:11:30.957Z,50.80
2023-01-17T17:16:34.385Z,51.20
2023-01-17T17:21:38.527Z,51.70
2023-01-17T17:26:43.781Z,51.80
2023-01-17T17:31:49.077Z,52.10
2023-01-17T17:36:53.281Z,52.90
2023-01-17T17:41:58.648Z,53.20
2023-01-17T17:47:03.123Z,53.40
2023-01-17T17:52:07.334Z,53.50
2023-01-17T17:57:13.018Z,53.70
2023-01-17T18:02:16.552Z,53.90
2023-01-17T18:07:20.460Z,53.80
2023-01-17T18:12:25.446Z,54.10
2023-01-17T18:17:28.880Z,54.20
2023-01-17T18:22:33.849Z,54.50
2023-01-17T18:27:39.734Z,54.70
2023-01-17T18:32:43.557Z,54.70
2023-01-17T18:37:47.021Z,54.80
2023-01-17T18:42:51.770Z,55.00
2023-01-17T18:47:55.707Z,55.20
2023-01-17T18:52:59.518Z,55.20
2023-01-17T18:58:06.712Z,55.20
2023-01-17T19:03:10.354Z,55.50
2023-01-17T19:08:14.380Z,55.60
2023-01-17T19:13:19.182Z,55.70
2023-01-17T19:18:22.552Z,55.80
2023-01-17T19:23:26.010Z,55.90
2023-01-17T19:28:31.082Z,56.00
2023-01-17T19:33:36.153Z,56.50
2023-01-17T19:38:39.580Z,56.50
2023-01-17T19:43:44.950Z,56.50
2023-01-17T19:48:48.412Z,56.90
2023-01-17T19:53:53.621Z,56.90
2023-01-17T19:59:01.394Z,57.10
2023-01-17T20:04:05.793Z,57.00
2023-01-17T20:09:10.143Z,57.10
2023-01-17T20:14:16.586Z,57.20
2023-01-17T20:19:19.978Z,57.30
2023-01-17T20:24:24.261Z,57.30
2023-01-17T20:29:29.364Z,57.50
2023-01-17T20:34:32.813Z,57.70
2023-01-17T20:39:38.949Z,57.90
2023-01-17T20:44:43.722Z,58.00
2023-01-17T20:49:47.227Z,57.90
2023-01-17T20:54:51.814Z,58.10
2023-01-17T20:59:56.554Z,58.70
2023-01-17T21:05:02.925Z,59.10
2023-01-17T21:10:07.988Z,59.30
2023-01-17T21:15:17.341Z,59.40
2023-01-17T21:20:23.522Z,59.80
2023-01-17T21:25:27.137Z,60.00
2023-01-17T21:30:31.909Z,60.20
2023-01-17T21:35:35.399Z,60.60
2023-01-17T21:40:39.478Z,61.00
2023-01-17T21:45:44.325Z,60.90
2023-01-17T21:50:49.754Z,60.80
2023-01-17T21:56:10.889Z,60.70
2023-01-17T22:01:23.243Z,60.80
2023-01-17T22:06:28.831Z,61.00
2023-01-17T22:11:32.697Z,61.20
2023-01-17T22:16:37.553Z,61.30
2023-01-17T22:21:40.956Z,61.30
2023-01-17T22:26:44.522Z,61.40
2023-01-17T22:31:49.592Z,61.40
2023-01-17T22:36:53.578Z,61.50
2023-01-17T22:41:56.993Z,61.80
2023-01-17T22:47:03.272Z,62.10
2023-01-17T22:52:06.953Z,62.40
2023-01-17T22:57:10.391Z,62.50
2023-01-17T23:02:16.541Z,63.00
2023-01-17T23:07:20.176Z,63.50
2023-01-17T23:12:24.147Z,63.80
2023-01-17T23:17:48.718Z,63.70
2023-01-17T23:22:52.353Z,63.80
2023-01-17T23:28:20.671Z,64.00
2023-01-17T23:33:25.864Z,64.00
2023-01-17T23:38:33.956Z,64.10
2023-01-17T23:43:38.826Z,64.10
2023-01-17T23:48:43.583Z,64.50
2023-01-17T23:53:47.596Z,65.00
2023-01-17T23:58:51.082Z,65.30
